• Join FlightAware (Why Join?)
  • Login
  • US Flag 
12:49AM EDT


 

Airport Tracker/Info


-or-


 

Live Flight TrackerFlight Track Log ✈ SWA2122 ✈ 06-Apr-2013 ✈ KCMH - KBWI

Flight Track Log - Related Links

Times and Time Zones

All times are in EDT time to prevent confusion due to time zone crossing. See the SWA2122 flight status page for this flight to view local times or setup timezone preferences in your user account.

Time Position Orientation Groundspeed Altitude Reporting Facility
EDT Latitude Longitude Course Direction KTS MPH feet Rate Location/Type
07:05AM 39.9939 -82.8819 102° East 170 196 1,200  Level Indianapolis Center
07:05AM 39.9894 -82.8542 102° East 170 196 2,600 2,340 Climbing Indianapolis Center
07:06AM 39.9856 -82.8061 96° East 213 245 3,700 2,760 Climbing Indianapolis Center
07:07AM 39.9811 -82.7089 93° East 268 308 7,200 3,360 Climbing Indianapolis Center
07:08AM 39.9711 -82.5944 96° East 311 358 10,500 2,820 Climbing Indianapolis Center
07:09AM 39.9594 -82.4547 96° East 380 437 13,000 2,760 Climbing Indianapolis Center
07:10AM 39.9522 -82.3036 94° East 409 471 16,200 2,580 Climbing Indianapolis Center
07:11AM 39.9497 -82.1467 91° East 425 489 18,300 2,340 Climbing Indianapolis Center
07:12AM 39.9433 -81.9789 93° East 455 524 21,000 2,400 Climbing Indianapolis Center
07:13AM 39.9372 -81.8089 93° East 463 533 23,300 1,980 Climbing Indianapolis Center
07:14AM 39.9300 -81.6322 93° East 480 552 25,100 1,740 Climbing Indianapolis Center
07:15AM 39.9147 -81.4508 96° East 496 571 26,900 1,680 Climbing Indianapolis Center
07:16AM 39.8947 -81.2589 98° East 506 582 28,600 1,020 Climbing Indianapolis Center
07:17AM 39.8772 -81.0769 97° East 504 580 29,000 240 Climbing Indianapolis Center
07:17AM 39.8686 -80.9617 96° East 504 580 29,000  Level Cleveland Center
07:18AM 39.8503 -80.7806 97° East 504 580 29,000  Level Cleveland Center
07:19AM 39.8317 -80.5992 98° East 504 580 29,000  Level Cleveland Center
07:20AM 39.8128 -80.4236 98° East 504 580 29,000  Level Cleveland Center
07:21AM 39.7936 -80.2428 98° East 504 580 29,000  Level Cleveland Center
07:22AM 39.7742 -80.0672 98° East 499 574 29,000  Level Cleveland Center
07:23AM 39.7544 -79.8917 98° East 499 574 29,000 -120 Level Cleveland Center
07:25AM 39.7125 -79.5111 98° East 503 579 28,800 -360 Descending Washington Center
07:26AM 39.6931 -79.3347 98° East 503 579 27,900 -1,440 Descending Washington Center
07:27AM 39.6714 -79.1556 99° East 498 573 26,000 -1,500 Descending Washington Center
07:28AM 39.6411 -78.9817 103° East 498 573 25,000 -540 Descending Washington Center
07:29AM 39.5994 -78.8289 109° East 498 573 25,000  Level Washington Center
07:30AM 39.5642 -78.6631 105° East 491 565 25,000 -1,200 Level Washington Center
07:31AM 39.5208 -78.4783 107° East 486 559 22,700 -3,000 Descending Washington Center
07:32AM 39.4908 -78.3372 105° East 474 545 19,000 -3,540 Descending Washington Center
07:33AM 39.4569 -78.1744 105° East 430 495 15,700 -2,040 Descending Washington Center
07:34AM 39.4428 -78.0425 98° East 413 475 15,000 -540 Descending Washington Center
07:35AM 39.4458 -77.8975 88° East 408 470 14,700 -840 Descending Washington Center
07:36AM 39.4444 -77.7494 91° East 408 470 13,400 -1,320 Descending Washington Center
07:37AM 39.4447 -77.6072 90° East 402 463 12,100 -1,200 Descending Washington Center
07:38AM 39.4450 -77.4619 90° East 402 463 11,000 -660 Descending Washington Center
07:39AM 39.4500 -77.3333 87° East 395 455 11,000  Level Potomac TRACON
07:40AM 39.4667 -77.2000 81° East 385 443 11,000 -480 Level Potomac TRACON
07:41AM 39.4667 -77.0667 90° East 328 377 10,100 -900 Descending Potomac TRACON
07:42AM 39.4500 -76.9833 104° East 302 348 9,200 -1,200 Descending Potomac TRACON
07:43AM 39.4333 -76.8667 100° East 293 337 7,800 -1,380 Descending Potomac TRACON
07:44AM 39.4000 -76.8167 131° Southeast 294 338 6,800 -1,440 Descending Potomac TRACON
07:45AM 39.3333 -76.7500 142° Southeast 278 320 5,400 -900 Descending Potomac TRACON
07:46AM 39.2833 -76.6833 134° Southeast 274 315 5,000 -720 Descending Potomac TRACON
07:47AM 39.2167 -76.6333 150° Southeast 258 297 4,000 -1,140 Descending Potomac TRACON
07:48AM 39.1667 -76.5833 142° Southeast 236 272 2,800 -960 Descending Potomac TRACON
07:49AM 39.1167 -76.5333 142° Southeast 224 258 2,100 -300 Descending Potomac TRACON
07:50AM 39.0667 -76.5333 180° South 219 252 2,300 -120 Climbing Potomac TRACON
07:51AM 39.0833 -76.5833 293° West 158 182 1,900 -360 Descending Potomac TRACON
07:52AM 39.1000 -76.6167 303° West 126 145 1,700 -540 Descending Potomac TRACON
07:53AM 39.1333 -76.6333 339° North 122 140 900 -840 Descending Potomac TRACON
07:55AM 39.1667 -76.6667 314° West  Level FlightAware Approximate
08:02AM 39.1754 -76.6683 314° West  Level Estimated